Time;durP1;ratioP1;P1;durP2;ratioP2;P2;SDS_P1;SDS_P2;PMS_P1;PMS_P2;Temp;Humidity;BMP_temperature;BMP_pressure;BME280_temperature;BME280_humidity;BME280_pressure;Samples;Min_cycle;Max_cycle;Signal;HPM_P1;HPM_P2
2022/12/28 00:01:29;;;;;;;;;;;5.80;99.90;;;;;;5055377;28;19916;-82
2022/12/28 00:03:57;;;;;;;;;;;5.80;99.90;;;;;;5051175;28;19916;-79
2022/12/28 00:06:23;;;;;;;;;;;5.80;99.90;;;;;;5054189;28;19916;-76
2022/12/28 00:08:51;;;;;;;;;;;5.80;99.90;;;;;;5055604;28;19915;-79
2022/12/28 00:11:17;;;;;;;;;;;5.80;99.90;;;;;;5048538;28;19909;-76
2022/12/28 00:13:43;;;;;;;;;;;5.90;99.90;;;;;;5048890;28;19913;-78
2022/12/28 00:16:16;;;;;;;;;;;5.90;99.90;;;;;;5053796;28;19915;-76
2022/12/28 00:18:42;;;;;;;;;;;5.80;99.90;;;;;;5050808;28;19913;-78
2022/12/28 00:21:08;;;;;;;;;;;5.80;99.90;;;;;;5053234;28;20333;-78
2022/12/28 00:23:34;;;;;;;;;;;5.90;99.90;;;;;;5055394;28;20303;-79
2022/12/28 00:26:06;;;;;;;;;;;5.80;99.90;;;;;;5053345;28;20247;-77
2022/12/28 00:28:32;;;;;;;;;;;5.90;99.90;;;;;;5053624;28;20311;-76
2022/12/28 00:30:58;;;;;;;;;;;5.90;99.90;;;;;;5046921;28;19920;-76
2022/12/28 00:33:23;;;;;;;;;;;5.90;99.90;;;;;;5037667;28;20278;-76
2022/12/28 00:35:53;;;;;;;;;;;5.90;99.90;;;;;;5054982;28;20339;-79
2022/12/28 00:38:19;;;;;;;;;;;6.00;99.90;;;;;;5046034;28;19916;-77
2022/12/28 00:40:44;;;;;;;;;;;5.90;99.90;;;;;;5045366;28;19970;-76
2022/12/28 00:43:10;;;;;;;;;;;5.90;99.90;;;;;;5054835;28;20215;-81
2022/12/28 00:45:35;;;;;;;;;;;6.00;99.90;;;;;;5053235;28;19909;-77
2022/12/28 00:48:01;;;;;;;;;;;6.00;99.90;;;;;;5053022;28;19913;-78
2022/12/28 00:50:27;;;;;;;;;;;5.90;99.90;;;;;;5053392;28;20422;-75
2022/12/28 00:52:52;;;;;;;;;;;6.00;99.90;;;;;;5054615;28;19920;-76
2022/12/28 00:55:18;;;;;;;;;;;6.00;99.90;;;;;;5051202;28;19913;-79
2022/12/28 00:57:44;;;;;;;;;;;6.00;99.90;;;;;;5053607;28;19923;-78
2022/12/28 01:00:10;;;;;;;;;;;6.00;99.90;;;;;;5054335;28;19909;-80
2022/12/28 01:02:35;;;;;;;;;;;6.00;99.90;;;;;;5053271;28;19913;-78
2022/12/28 01:05:01;;;;;;;;;;;6.00;99.90;;;;;;5050389;28;19916;-77
2022/12/28 01:07:27;;;;;;;;;;;6.10;99.90;;;;;;5045522;28;20263;-82
2022/12/28 01:09:52;;;;;;;;;;;6.10;99.90;;;;;;5053273;28;19917;-76
2022/12/28 01:12:18;;;;;;;;;;;6.10;99.90;;;;;;5053345;28;20322;-76
2022/12/28 01:14:44;;;;;;;;;;;6.10;99.90;;;;;;5048589;28;19908;-83
2022/12/28 01:17:09;;;;;;;;;;;6.20;99.90;;;;;;5051300;28;19979;-79
2022/12/28 01:19:35;;;;;;;;;;;6.20;99.90;;;;;;5047550;28;19915;-76
2022/12/28 01:22:01;;;;;;;;;;;6.20;99.90;;;;;;5044351;28;19924;-79
2022/12/28 01:24:26;;;;;;;;;;;6.20;99.90;;;;;;5054338;28;19955;-81
2022/12/28 01:26:52;;;;;;;;;;;6.30;99.90;;;;;;5050989;28;19913;-76
2022/12/28 01:29:18;;;;;;;;;;;6.30;99.90;;;;;;5054302;28;19917;-83
2022/12/28 01:31:43;;;;;;;;;;;6.30;99.90;;;;;;5053264;28;20185;-79
2022/12/28 01:34:09;;;;;;;;;;;6.30;99.90;;;;;;5053534;28;20207;-81
2022/12/28 01:36:35;;;;;;;;;;;6.30;99.90;;;;;;5054157;28;19963;-84
2022/12/28 01:39:02;;;;;;;;;;;6.40;99.90;;;;;;5053140;28;19917;-80
2022/12/28 01:41:28;;;;;;;;;;;6.40;99.90;;;;;;5051174;28;19928;-76
2022/12/28 01:43:54;;;;;;;;;;;6.50;99.90;;;;;;5041604;28;20054;-77
2022/12/28 01:46:28;;;;;;;;;;;6.50;99.90;;;;;;5051536;28;20355;-77
2022/12/28 01:48:57;;;;;;;;;;;6.60;99.90;;;;;;5051871;28;19921;-75
2022/12/28 01:51:24;;;;;;;;;;;6.60;99.90;;;;;;5055625;28;19917;-80
2022/12/28 01:53:51;;;;;;;;;;;6.60;99.90;;;;;;5055384;28;19916;-77
2022/12/28 01:56:17;;;;;;;;;;;6.70;99.90;;;;;;5056918;28;19916;-76
2022/12/28 01:58:44;;;;;;;;;;;6.70;99.90;;;;;;5054441;28;20212;-76
2022/12/28 02:01:10;;;;;;;;;;;6.70;99.90;;;;;;5055412;28;20023;-77
2022/12/28 02:03:35;;;;;;;;;;;6.70;99.90;;;;;;5056610;28;19996;-74
2022/12/28 02:06:04;;;;;;;;;;;6.70;99.90;;;;;;5056981;28;19921;-75
2022/12/28 02:08:52;;;;;;;;;;;6.80;99.90;;;;;;5055324;28;20031;-79
2022/12/28 02:11:18;;;;;;;;;;;6.80;99.90;;;;;;5047765;28;19923;-77
2022/12/28 02:13:49;;;;;;;;;;;6.80;99.90;;;;;;5057251;28;19908;-78
2022/12/28 02:16:14;;;;;;;;;;;6.90;99.90;;;;;;5057239;28;19947;-77
2022/12/28 02:18:41;;;;;;;;;;;6.90;99.90;;;;;;5055732;28;20268;-82
2022/12/28 02:21:10;;;;;;;;;;;6.90;99.90;;;;;;5053068;28;20369;-81
2022/12/28 02:23:38;;;;;;;;;;;6.90;99.90;;;;;;5055783;28;19916;-75
2022/12/28 02:26:24;;;;;;;;;;;6.90;99.90;;;;;;5049228;28;20008;-75
2022/12/28 02:29:10;;;;;;;;;;;6.90;99.90;;;;;;5053358;28;19967;-77
2022/12/28 02:31:59;;;;;;;;;;;6.90;99.90;;;;;;5053955;28;19983;-76
2022/12/28 02:34:28;;;;;;;;;;;6.90;99.90;;;;;;5055336;28;20012;-77
2022/12/28 02:37:15;;;;;;;;;;;6.90;99.90;;;;;;5056677;28;20007;-76
2022/12/28 02:39:46;;;;;;;;;;;7.00;99.90;;;;;;5071588;28;20003;-77
2022/12/28 02:42:12;;;;;;;;;;;7.00;99.90;;;;;;5056535;28;19928;-76
2022/12/28 02:50:08;;;;;;;;;;;7.00;99.90;;;;;;5045295;28;19981;-75
2022/12/28 02:53:09;;;;;;;;;;;7.10;99.90;;;;;;5055431;28;19909;-75
2022/12/28 02:56:08;;;;;;;;;;;7.10;99.90;;;;;;4967067;28;19910;-78
2022/12/28 02:58:46;;;;;;;;;;;7.10;99.90;;;;;;4958744;28;19921;-78
2022/12/28 03:01:18;;;;;;;;;;;7.10;99.90;;;;;;4957338;28;20388;-77
2022/12/28 03:03:44;;;;;;;;;;;7.00;99.90;;;;;;4974844;28;19921;-74
2022/12/28 03:09:18;;;;;;;;;;;7.00;99.90;;;;;;4965915;28;19973;-75
2022/12/28 03:11:52;;;;;;;;;;;7.00;99.90;;;;;;4972422;28;20264;-75
2022/12/28 03:14:21;;;;;;;;;;;7.10;99.90;;;;;;4968232;28;20306;-74
2022/12/28 03:33:22;;;;;;;;;;;7.10;99.90;;;;;;5052570;28;20215;-75
2022/12/28 03:35:54;;;;;;;;;;;7.20;99.90;;;;;;5052337;28;19909;-90
2022/12/28 03:38:26;;;;;;;;;;;7.20;99.90;;;;;;5055820;28;19940;-81
2022/12/28 03:40:55;;;;;;;;;;;7.20;99.90;;;;;;5054482;28;19982;-75
2022/12/28 03:46:17;;;;;;;;;;;7.20;99.90;;;;;;5042656;28;20346;-74
2022/12/28 03:48:43;;;;;;;;;;;7.20;99.90;;;;;;5055561;28;19971;-75
2022/12/28 03:51:11;;;;;;;;;;;7.20;99.90;;;;;;5054465;28;20042;-80
2022/12/28 03:53:41;;;;;;;;;;;7.20;99.90;;;;;;5049574;28;19909;-82
2022/12/28 03:56:10;;;;;;;;;;;7.20;99.90;;;;;;5053704;28;20252;-78
2022/12/28 03:58:36;;;;;;;;;;;7.20;99.90;;;;;;5051580;28;19953;-81
2022/12/28 04:01:02;;;;;;;;;;;7.20;99.90;;;;;;5044599;28;19956;-75
2022/12/28 04:03:28;;;;;;;;;;;7.20;99.90;;;;;;5052942;28;19928;-80
2022/12/28 04:05:54;;;;;;;;;;;7.30;99.90;;;;;;5068728;28;19909;-76
2022/12/28 04:08:20;;;;;;;;;;;7.30;99.90;;;;;;5053857;28;20008;-79
2022/12/28 04:10:45;;;;;;;;;;;7.30;99.90;;;;;;5051189;28;20015;-80
2022/12/28 04:13:11;;;;;;;;;;;7.30;99.90;;;;;;5052563;28;19920;-76
2022/12/28 04:15:36;;;;;;;;;;;7.30;99.90;;;;;;5049796;28;19917;-76
2022/12/28 04:18:02;;;;;;;;;;;7.30;99.90;;;;;;5052743;28;20296;-74
2022/12/28 04:20:28;;;;;;;;;;;7.30;99.90;;;;;;5041318;28;20025;-82
2022/12/28 04:22:53;;;;;;;;;;;7.40;99.90;;;;;;5056747;28;19917;-74
2022/12/28 04:25:19;;;;;;;;;;;7.40;99.90;;;;;;5047998;28;19928;-83
2022/12/28 04:27:44;;;;;;;;;;;7.30;99.90;;;;;;5037272;28;19909;-83
2022/12/28 04:30:10;;;;;;;;;;;7.40;99.90;;;;;;5041149;28;19917;-82
2022/12/28 04:32:36;;;;;;;;;;;7.40;99.90;;;;;;5036918;28;19913;-76
2022/12/28 04:35:02;;;;;;;;;;;7.40;99.90;;;;;;5052210;28;20338;-79
2022/12/28 04:37:27;;;;;;;;;;;7.40;99.90;;;;;;5053026;28;20220;-81
2022/12/28 04:39:53;;;;;;;;;;;7.50;99.90;;;;;;5047103;28;19913;-76
2022/12/28 04:42:18;;;;;;;;;;;7.50;99.90;;;;;;5047700;28;19938;-75
2022/12/28 04:44:44;;;;;;;;;;;7.50;99.90;;;;;;5043417;28;19913;-77
2022/12/28 04:47:10;;;;;;;;;;;7.50;99.90;;;;;;5054325;28;20231;-78
2022/12/28 04:49:35;;;;;;;;;;;7.50;99.90;;;;;;5041840;28;19913;-75
2022/12/28 04:52:01;;;;;;;;;;;7.50;99.90;;;;;;5050221;28;20223;-76
2022/12/28 04:54:26;;;;;;;;;;;7.50;99.90;;;;;;5051326;28;20367;-78
2022/12/28 04:56:52;;;;;;;;;;;7.50;99.90;;;;;;5052540;28;20208;-75
2022/12/28 04:59:18;;;;;;;;;;;7.50;99.90;;;;;;5051707;28;20304;-78
2022/12/28 05:01:43;;;;;;;;;;;7.60;99.90;;;;;;5053165;28;19908;-76
2022/12/28 05:04:09;;;;;;;;;;;7.50;99.90;;;;;;5053934;28;19916;-80
2022/12/28 05:06:34;;;;;;;;;;;7.60;99.90;;;;;;5053484;28;20311;-79
2022/12/28 05:09:00;;;;;;;;;;;7.60;99.90;;;;;;5049916;28;19966;-75
2022/12/28 05:11:27;;;;;;;;;;;7.60;99.90;;;;;;5048219;28;20015;-75
2022/12/28 05:13:52;;;;;;;;;;;7.60;99.90;;;;;;5044223;28;20011;-80
2022/12/28 05:16:19;;;;;;;;;;;7.60;99.90;;;;;;5054183;28;20069;-75
2022/12/28 05:18:45;;;;;;;;;;;7.60;99.90;;;;;;5053777;28;19917;-74
2022/12/28 05:21:15;;;;;;;;;;;7.70;99.90;;;;;;5053497;28;20003;-85
2022/12/28 05:23:41;;;;;;;;;;;7.70;99.90;;;;;;5051949;28;19919;-77
2022/12/28 05:26:08;;;;;;;;;;;7.70;99.90;;;;;;5056182;28;20219;-78
2022/12/28 05:28:33;;;;;;;;;;;7.70;99.90;;;;;;5058136;28;19924;-76
2022/12/28 05:31:00;;;;;;;;;;;7.80;99.90;;;;;;5057626;28;19909;-75
2022/12/28 05:33:27;;;;;;;;;;;7.80;99.90;;;;;;5051666;28;20256;-75
2022/12/28 05:35:53;;;;;;;;;;;7.80;99.90;;;;;;5048308;28;19944;-78
2022/12/28 05:38:19;;;;;;;;;;;7.80;99.90;;;;;;5056195;28;19971;-79
2022/12/28 05:40:44;;;;;;;;;;;7.80;99.90;;;;;;5051668;28;20290;-88
2022/12/28 05:43:10;;;;;;;;;;;7.90;99.90;;;;;;5052302;28;19974;-79
2022/12/28 05:45:36;;;;;;;;;;;7.90;99.90;;;;;;5061444;28;19908;-80
2022/12/28 05:48:02;;;;;;;;;;;7.90;99.90;;;;;;5056488;28;20763;-75
2022/12/28 05:50:27;;;;;;;;;;;7.90;99.90;;;;;;5051069;28;19933;-75
2022/12/28 05:52:53;;;;;;;;;;;7.90;99.90;;;;;;5056619;28;19912;-80
2022/12/28 05:55:18;;;;;;;;;;;8.00;99.90;;;;;;5057412;28;20371;-79
2022/12/28 05:57:44;;;;;;;;;;;8.00;99.90;;;;;;5072652;28;19959;-79
2022/12/28 06:00:10;;;;;;;;;;;8.00;99.90;;;;;;5056607;28;19941;-75
2022/12/28 06:02:35;;;;;;;;;;;8.00;99.90;;;;;;5056870;28;19909;-79
2022/12/28 06:05:01;;;;;;;;;;;8.00;99.90;;;;;;5055868;28;19913;-78
2022/12/28 06:07:27;;;;;;;;;;;8.00;99.90;;;;;;5058133;28;19971;-78
2022/12/28 06:09:52;;;;;;;;;;;8.10;99.90;;;;;;5056732;28;19919;-80
2022/12/28 06:12:18;;;;;;;;;;;8.10;99.90;;;;;;5054641;28;19936;-79
2022/12/28 06:14:44;;;;;;;;;;;8.10;99.90;;;;;;5051302;28;19913;-75
2022/12/28 06:17:09;;;;;;;;;;;8.20;99.90;;;;;;5053300;28;19915;-82
2022/12/28 06:19:35;;;;;;;;;;;8.20;99.90;;;;;;5051655;28;19909;-78
2022/12/28 06:22:01;;;;;;;;;;;8.20;99.90;;;;;;5057238;28;19924;-75
2022/12/28 06:24:26;;;;;;;;;;;8.20;99.90;;;;;;5055975;28;19957;-75
2022/12/28 06:26:52;;;;;;;;;;;8.20;99.90;;;;;;5053006;28;20011;-81
2022/12/28 06:29:17;;;;;;;;;;;8.30;99.90;;;;;;5057216;28;19916;-75
2022/12/28 06:31:45;;;;;;;;;;;8.20;99.90;;;;;;5052368;28;20043;-83
2022/12/28 06:34:11;;;;;;;;;;;8.30;99.90;;;;;;5043467;28;19952;-77
2022/12/28 06:36:41;;;;;;;;;;;8.30;99.90;;;;;;5051962;28;19991;-74
2022/12/28 06:39:07;;;;;;;;;;;8.30;99.90;;;;;;5055246;28;19912;-74
2022/12/28 06:41:33;;;;;;;;;;;8.30;99.90;;;;;;5051743;28;19952;-75
2022/12/28 06:43:59;;;;;;;;;;;8.40;99.90;;;;;;5053498;28;20449;-78
2022/12/28 06:46:25;;;;;;;;;;;8.40;99.90;;;;;;5044548;28;19913;-81
2022/12/28 06:48:51;;;;;;;;;;;8.30;99.90;;;;;;5042159;28;19917;-82
2022/12/28 06:51:22;;;;;;;;;;;8.30;99.90;;;;;;5052599;28;19928;-78
2022/12/28 06:53:48;;;;;;;;;;;8.30;99.90;;;;;;5056463;28;19917;-75
2022/12/28 06:56:16;;;;;;;;;;;8.30;99.90;;;;;;5055678;28;20034;-79
2022/12/28 06:58:42;;;;;;;;;;;8.30;99.90;;;;;;5053570;28;20200;-75
2022/12/28 07:01:12;;;;;;;;;;;8.30;99.90;;;;;;5054214;28;19948;-79
2022/12/28 07:03:38;;;;;;;;;;;8.30;99.90;;;;;;5051894;28;19917;-76
2022/12/28 07:06:04;;;;;;;;;;;8.40;99.90;;;;;;5061966;28;19909;-77
2022/12/28 07:08:30;;;;;;;;;;;8.40;99.90;;;;;;5055103;28;19920;-81
2022/12/28 07:11:01;;;;;;;;;;;8.40;99.90;;;;;;5052915;28;19913;-80
2022/12/28 07:13:27;;;;;;;;;;;8.40;99.90;;;;;;5049252;28;19939;-75
2022/12/28 07:15:53;;;;;;;;;;;8.40;99.90;;;;;;5053077;28;20307;-79
2022/12/28 07:18:18;;;;;;;;;;;8.40;99.90;;;;;;5052382;28;20295;-75
2022/12/28 07:20:44;;;;;;;;;;;8.40;99.90;;;;;;5054591;28;20204;-76
2022/12/28 07:23:09;;;;;;;;;;;8.40;99.90;;;;;;5049893;28;19916;-75
2022/12/28 07:25:35;;;;;;;;;;;8.40;99.90;;;;;;5038537;28;19975;-80
2022/12/28 07:28:01;;;;;;;;;;;8.50;99.90;;;;;;5051307;28;19924;-80
2022/12/28 07:30:26;;;;;;;;;;;8.50;99.90;;;;;;5050552;28;19916;-80
2022/12/28 07:32:52;;;;;;;;;;;8.50;99.90;;;;;;5054946;28;20307;-75
2022/12/28 07:35:18;;;;;;;;;;;8.50;99.90;;;;;;5055913;28;19920;-76
2022/12/28 07:37:44;;;;;;;;;;;8.50;99.90;;;;;;5053617;28;20296;-76
2022/12/28 07:40:10;;;;;;;;;;;8.50;99.90;;;;;;5049315;28;19971;-79
2022/12/28 07:42:35;;;;;;;;;;;8.50;99.90;;;;;;5055119;28;20339;-78
2022/12/28 07:45:01;;;;;;;;;;;8.50;99.90;;;;;;5054684;28;19916;-77
2022/12/28 07:47:27;;;;;;;;;;;8.50;99.90;;;;;;5054025;28;20235;-76
2022/12/28 07:49:52;;;;;;;;;;;8.50;99.90;;;;;;5044481;28;19916;-75
2022/12/28 07:52:18;;;;;;;;;;;8.50;99.90;;;;;;5059541;28;20410;-75
2022/12/28 07:54:43;;;;;;;;;;;8.50;99.90;;;;;;5054529;28;19909;-79
2022/12/28 07:57:09;;;;;;;;;;;8.60;99.90;;;;;;5053688;28;19982;-76
2022/12/28 07:59:35;;;;;;;;;;;8.50;99.90;;;;;;5052645;28;20366;-82
2022/12/28 08:02:00;;;;;;;;;;;8.50;99.90;;;;;;5054633;28;19955;-78
2022/12/28 08:04:26;;;;;;;;;;;8.60;99.90;;;;;;5055370;28;19970;-75
2022/12/28 08:06:52;;;;;;;;;;;8.60;99.90;;;;;;5052005;28;20046;-79
2022/12/28 08:09:17;;;;;;;;;;;8.60;99.90;;;;;;5054262;28;19920;-80
2022/12/28 08:11:44;;;;;;;;;;;8.60;99.90;;;;;;5054122;28;19999;-76
2022/12/28 08:14:10;;;;;;;;;;;8.60;99.90;;;;;;5053810;28;19915;-78
2022/12/28 08:16:37;;;;;;;;;;;8.60;99.90;;;;;;5054781;28;19978;-77
2022/12/28 08:19:04;;;;;;;;;;;8.60;99.90;;;;;;5055243;28;20327;-75
2022/12/28 08:21:34;;;;;;;;;;;8.60;99.90;;;;;;5048143;28;19958;-79
2022/12/28 08:24:00;;;;;;;;;;;8.70;99.90;;;;;;5044490;28;20212;-76
2022/12/28 08:26:30;;;;;;;;;;;8.60;99.90;;;;;;5050983;28;19920;-76
2022/12/28 08:28:57;;;;;;;;;;;8.60;99.90;;;;;;5047856;28;19931;-76
2022/12/28 08:31:25;;;;;;;;;;;8.60;99.90;;;;;;5048829;28;19939;-75
2022/12/28 08:33:52;;;;;;;;;;;8.70;99.90;;;;;;5055123;28;19916;-78
2022/12/28 08:36:18;;;;;;;;;;;8.70;99.90;;;;;;5053026;28;19908;-76
2022/12/28 08:38:44;;;;;;;;;;;8.70;99.90;;;;;;5051390;28;20207;-82
2022/12/28 08:41:11;;;;;;;;;;;8.70;99.90;;;;;;5053387;28;19916;-83
2022/12/28 08:43:37;;;;;;;;;;;8.70;99.90;;;;;;5040721;28;19991;-78
2022/12/28 08:46:04;;;;;;;;;;;8.70;99.90;;;;;;5044782;28;19913;-74
2022/12/28 08:48:30;;;;;;;;;;;8.70;99.90;;;;;;5045360;28;19916;-83
2022/12/28 08:51:15;;;;;;;;;;;8.70;99.90;;;;;;5053390;28;19917;-75
2022/12/28 08:53:42;;;;;;;;;;;8.70;99.90;;;;;;5045866;28;20356;-78
2022/12/28 08:56:12;;;;;;;;;;;8.70;99.90;;;;;;5047911;28;19913;-75
2022/12/28 08:58:41;;;;;;;;;;;8.70;99.90;;;;;;5048955;28;20037;-79
2022/12/28 09:01:07;;;;;;;;;;;8.70;99.90;;;;;;5049202;28;19920;-75
2022/12/28 09:03:36;;;;;;;;;;;8.70;99.90;;;;;;5049676;28;19917;-75
2022/12/28 09:06:06;;;;;;;;;;;8.70;99.90;;;;;;5052303;28;20011;-78
2022/12/28 09:08:32;;;;;;;;;;;8.70;99.90;;;;;;5051894;28;19917;-81
2022/12/28 09:11:02;;;;;;;;;;;8.70;99.90;;;;;;5048846;28;19947;-76
2022/12/28 09:13:28;;;;;;;;;;;8.70;99.90;;;;;;5047732;28;19995;-80
2022/12/28 09:16:04;;;;;;;;;;;8.70;99.90;;;;;;5051089;28;20000;-80
2022/12/28 09:18:30;;;;;;;;;;;8.70;99.90;;;;;;5028623;28;19917;-76
2022/12/28 09:20:55;;;;;;;;;;;8.70;99.90;;;;;;5045813;28;19996;-83
2022/12/28 09:23:21;;;;;;;;;;;8.60;99.90;;;;;;5052193;28;20315;-80
2022/12/28 09:25:47;;;;;;;;;;;8.70;99.90;;;;;;5048644;28;20330;-76
2022/12/28 09:28:13;;;;;;;;;;;8.70;99.90;;;;;;5053785;28;19916;-81
2022/12/28 09:30:38;;;;;;;;;;;8.70;99.90;;;;;;5052414;28;20007;-79
2022/12/28 09:35:48;;;;;;;;;;;8.70;99.90;;;;;;5046188;28;20008;-75
2022/12/28 09:38:14;;;;;;;;;;;8.70;99.90;;;;;;5043645;28;20298;-75
2022/12/28 09:40:40;;;;;;;;;;;8.70;99.90;;;;;;5053814;28;19909;-74
2022/12/28 09:43:08;;;;;;;;;;;8.70;99.90;;;;;;5047561;28;19916;-75
2022/12/28 09:45:34;;;;;;;;;;;8.70;99.90;;;;;;5052840;28;20280;-77
2022/12/28 09:48:02;;;;;;;;;;;8.70;99.90;;;;;;5044937;28;20334;-76
2022/12/28 09:50:29;;;;;;;;;;;8.70;99.90;;;;;;5042073;28;20386;-78
2022/12/28 09:53:10;;;;;;;;;;;8.70;99.90;;;;;;5049385;28;19921;-76
2022/12/28 09:55:37;;;;;;;;;;;8.70;99.90;;;;;;5050499;28;19919;-76
2022/12/28 09:58:04;;;;;;;;;;;8.70;99.90;;;;;;5039205;28;20317;-75
2022/12/28 10:00:37;;;;;;;;;;;8.70;99.90;;;;;;5053235;28;20379;-81
2022/12/28 10:03:06;;;;;;;;;;;8.70;99.90;;;;;;5051251;28;19931;-75
2022/12/28 10:05:31;;;;;;;;;;;8.70;99.90;;;;;;5052661;28;20260;-77
2022/12/28 10:07:57;;;;;;;;;;;8.70;99.90;;;;;;5048825;28;19967;-79
2022/12/28 10:10:25;;;;;;;;;;;8.60;99.90;;;;;;5044424;28;19917;-75
2022/12/28 10:12:51;;;;;;;;;;;8.60;99.90;;;;;;5047974;28;19962;-74
2022/12/28 10:15:17;;;;;;;;;;;8.60;99.90;;;;;;5051222;28;19908;-75
2022/12/28 10:17:43;;;;;;;;;;;8.60;99.90;;;;;;5051413;28;19913;-76
2022/12/28 10:20:16;;;;;;;;;;;8.70;99.90;;;;;;5034142;28;19924;-80
2022/12/28 10:22:42;;;;;;;;;;;8.70;99.90;;;;;;5046609;28;19920;-78
2022/12/28 10:25:12;;;;;;;;;;;8.70;99.90;;;;;;5053192;28;19916;-81
2022/12/28 10:27:37;;;;;;;;;;;8.70;99.90;;;;;;5049782;28;20242;-74
2022/12/28 10:30:06;;;;;;;;;;;8.70;99.90;;;;;;5054563;28;19924;-75
2022/12/28 10:32:51;;;;;;;;;;;8.70;99.90;;;;;;5050486;28;19921;-78
2022/12/28 10:35:34;;;;;;;;;;;8.70;99.90;;;;;;5051416;28;20247;-76
2022/12/28 10:38:04;;;;;;;;;;;8.70;99.90;;;;;;5056194;28;19913;-77
2022/12/28 10:40:32;;;;;;;;;;;8.80;99.90;;;;;;5052124;28;19970;-82
2022/12/28 10:42:59;;;;;;;;;;;8.80;99.90;;;;;;5053138;28;19963;-76
2022/12/28 10:45:38;;;;;;;;;;;8.80;99.90;;;;;;5049848;28;20248;-84
2022/12/28 10:48:08;;;;;;;;;;;8.80;99.90;;;;;;5055558;28;20000;-79
2022/12/28 10:50:43;;;;;;;;;;;8.80;99.90;;;;;;5052235;28;19921;-77
2022/12/28 10:53:25;;;;;;;;;;;8.80;99.90;;;;;;5059480;28;19940;-83
2022/12/28 10:56:05;;;;;;;;;;;8.80;99.90;;;;;;5048409;28;20019;-81
2022/12/28 10:58:31;;;;;;;;;;;8.80;99.90;;;;;;5049037;28;19913;-78
2022/12/28 11:00:59;;;;;;;;;;;8.90;99.90;;;;;;5054431;28;20285;-77
2022/12/28 11:03:25;;;;;;;;;;;8.90;99.90;;;;;;5055777;28;19913;-75
2022/12/28 11:06:10;;;;;;;;;;;8.90;99.90;;;;;;5048091;28;19915;-81
2022/12/28 11:08:38;;;;;;;;;;;8.90;99.90;;;;;;5050429;28;20015;-76
2022/12/28 11:11:04;;;;;;;;;;;8.90;99.90;;;;;;5051008;28;20315;-75
2022/12/28 11:13:29;;;;;;;;;;;8.90;99.90;;;;;;5065395;28;19912;-80
2022/12/28 11:15:55;;;;;;;;;;;8.90;99.90;;;;;;5050418;28;19967;-80
2022/12/28 11:18:21;;;;;;;;;;;8.90;99.90;;;;;;5054758;28;19909;-78
2022/12/28 11:20:48;;;;;;;;;;;8.90;99.90;;;;;;5055302;28;19921;-80
2022/12/28 11:23:24;;;;;;;;;;;8.80;99.90;;;;;;5054639;28;19955;-75
2022/12/28 11:25:50;;;;;;;;;;;8.80;99.90;;;;;;5048462;28;19917;-80
2022/12/28 11:28:19;;;;;;;;;;;8.80;99.90;;;;;;5051151;28;19951;-75
2022/12/28 11:30:46;;;;;;;;;;;8.80;99.90;;;;;;5053275;28;20031;-78
2022/12/28 11:33:41;;;;;;;;;;;8.80;99.90;;;;;;5056453;28;20631;-77
2022/12/28 11:36:23;;;;;;;;;;;8.80;99.90;;;;;;5037543;28;20231;-83
2022/12/28 11:38:49;;;;;;;;;;;8.80;99.90;;;;;;5050158;28;19921;-75
2022/12/28 11:41:24;;;;;;;;;;;8.80;99.90;;;;;;5049199;28;19921;-83
2022/12/28 11:43:50;;;;;;;;;;;8.80;99.90;;;;;;5047159;28;19919;-82
2022/12/28 11:46:19;;;;;;;;;;;8.80;99.90;;;;;;5053789;28;19955;-81
2022/12/28 11:48:47;;;;;;;;;;;8.80;99.90;;;;;;5051140;28;20007;-77
2022/12/28 11:51:22;;;;;;;;;;;8.80;99.90;;;;;;5041641;28;19921;-75
2022/12/28 11:53:48;;;;;;;;;;;8.80;99.90;;;;;;5055502;28;19948;-75
2022/12/28 11:56:15;;;;;;;;;;;8.80;99.90;;;;;;5052954;28;19956;-80
2022/12/28 11:58:41;;;;;;;;;;;8.80;99.90;;;;;;5053885;28;20228;-76
2022/12/28 12:01:11;;;;;;;;;;;8.80;99.90;;;;;;5042182;28;19987;-82
2022/12/28 12:03:55;;;;;;;;;;;8.80;99.90;;;;;;5051672;28;19912;-80
2022/12/28 12:06:40;;;;;;;;;;;8.80;99.90;;;;;;5053005;28;20308;-79
2022/12/28 12:09:30;;;;;;;;;;;8.80;99.90;;;;;;5054124;28;20307;-81
2022/12/28 12:11:57;;;;;;;;;;;8.80;99.90;;;;;;5048379;28;19908;-81
2022/12/28 12:14:29;;;;;;;;;;;8.80;99.90;;;;;;5051309;28;19913;-75
2022/12/28 12:17:06;;;;;;;;;;;8.80;99.90;;;;;;5051166;28;19920;-84
2022/12/28 12:19:34;;;;;;;;;;;8.80;99.90;;;;;;5049624;28;19920;-77
2022/12/28 12:22:13;;;;;;;;;;;8.80;99.90;;;;;;5049921;28;19948;-81
2022/12/28 12:24:44;;;;;;;;;;;8.80;99.90;;;;;;5045431;28;19967;-75
2022/12/28 12:27:16;;;;;;;;;;;8.80;99.90;;;;;;5049573;28;20229;-82
2022/12/28 12:29:55;;;;;;;;;;;8.70;99.90;;;;;;5046787;28;19925;-79
2022/12/28 12:32:27;;;;;;;;;;;8.70;99.90;;;;;;5052420;28;20320;-83
2022/12/28 12:34:55;;;;;;;;;;;8.70;99.90;;;;;;5049017;28;19909;-80
2022/12/28 12:37:34;;;;;;;;;;;8.70;99.90;;;;;;5049793;28;20231;-76
2022/12/28 12:40:06;;;;;;;;;;;8.70;99.90;;;;;;5052052;28;20328;-82
2022/12/28 12:42:44;;;;;;;;;;;8.70;99.90;;;;;;5052183;28;19947;-82
2022/12/28 12:45:28;;;;;;;;;;;8.70;99.90;;;;;;5046800;28;20327;-79
2022/12/28 12:48:15;;;;;;;;;;;8.70;99.90;;;;;;5043624;28;19912;-79
2022/12/28 12:50:50;;;;;;;;;;;8.70;99.90;;;;;;5049463;28;19939;-82
2022/12/28 12:53:21;;;;;;;;;;;8.70;99.90;;;;;;5049597;28;19909;-80
2022/12/28 12:56:03;;;;;;;;;;;8.70;99.90;;;;;;5048071;28;19917;-80
2022/12/28 12:58:45;;;;;;;;;;;8.70;99.90;;;;;;5064312;28;19913;-80
2022/12/28 13:01:32;;;;;;;;;;;8.70;99.90;;;;;;5046677;28;20459;-80
2022/12/28 13:04:05;;;;;;;;;;;8.70;99.90;;;;;;5046528;28;19940;-79
2022/12/28 13:06:33;;;;;;;;;;;8.80;99.90;;;;;;5045858;28;19913;-76
2022/12/28 13:09:01;;;;;;;;;;;8.80;99.90;;;;;;5051332;28;19928;-83
2022/12/28 13:11:28;;;;;;;;;;;8.80;99.90;;;;;;5046235;28;19912;-77
2022/12/28 13:13:54;;;;;;;;;;;8.80;99.90;;;;;;5046527;28;20288;-78
2022/12/28 13:16:21;;;;;;;;;;;8.80;99.90;;;;;;5047114;28;19923;-75
2022/12/28 13:19:05;;;;;;;;;;;8.80;99.90;;;;;;5051657;28;19920;-84
2022/12/28 13:21:42;;;;;;;;;;;8.80;99.90;;;;;;5047142;28;19928;-80
2022/12/28 13:24:28;;;;;;;;;;;8.90;99.90;;;;;;5051963;28;19924;-83
2022/12/28 13:26:54;;;;;;;;;;;8.90;99.90;;;;;;5049855;28;19925;-79
2022/12/28 13:29:24;;;;;;;;;;;8.90;99.90;;;;;;5049041;28;20327;-85
2022/12/28 13:31:50;;;;;;;;;;;9.00;99.90;;;;;;5053403;28;19916;-84
2022/12/28 13:34:23;;;;;;;;;;;9.00;99.90;;;;;;5050003;28;19913;-78
2022/12/28 13:36:55;;;;;;;;;;;9.00;99.90;;;;;;5053293;28;20013;-80
2022/12/28 13:39:21;;;;;;;;;;;9.00;99.90;;;;;;5045749;28;19948;-82
2022/12/28 13:41:55;;;;;;;;;;;9.00;99.90;;;;;;5048551;28;19920;-75
2022/12/28 13:44:20;;;;;;;;;;;9.00;99.90;;;;;;5050507;28;20272;-80
2022/12/28 13:46:49;;;;;;;;;;;9.10;99.90;;;;;;5051961;28;20021;-78
2022/12/28 13:49:15;;;;;;;;;;;9.10;99.90;;;;;;5048246;28;19916;-78
2022/12/28 13:51:41;;;;;;;;;;;9.10;99.90;;;;;;5047650;28;19919;-81
2022/12/28 13:54:08;;;;;;;;;;;9.10;99.90;;;;;;5040987;28;20000;-76
2022/12/28 13:56:34;;;;;;;;;;;9.10;99.90;;;;;;5053243;28;19919;-78
2022/12/28 13:59:01;;;;;;;;;;;9.10;99.90;;;;;;5045472;28;19944;-79
2022/12/28 14:01:32;;;;;;;;;;;9.20;99.90;;;;;;5049334;28;19955;-78
2022/12/28 14:04:03;;;;;;;;;;;9.10;99.90;;;;;;5052191;28;19919;-80
2022/12/28 14:06:29;;;;;;;;;;;9.20;99.90;;;;;;5057573;28;19928;-80
2022/12/28 14:08:55;;;;;;;;;;;9.20;99.90;;;;;;5057294;28;19916;-79
2022/12/28 14:11:21;;;;;;;;;;;9.20;99.90;;;;;;5056740;28;19916;-75
2022/12/28 14:13:47;;;;;;;;;;;9.20;99.90;;;;;;5055383;28;19909;-81
2022/12/28 14:16:12;;;;;;;;;;;9.20;99.90;;;;;;5055961;28;19917;-76
2022/12/28 14:18:38;;;;;;;;;;;9.20;99.90;;;;;;5049296;28;19916;-75
2022/12/28 14:21:05;;;;;;;;;;;9.20;99.90;;;;;;5048580;28;19956;-80
2022/12/28 14:23:35;;;;;;;;;;;9.20;99.90;;;;;;5045546;28;20016;-78
2022/12/28 14:26:03;;;;;;;;;;;9.20;99.90;;;;;;5055608;28;19928;-80
2022/12/28 14:28:37;;;;;;;;;;;9.20;99.90;;;;;;5050869;28;20298;-82
2022/12/28 14:31:04;;;;;;;;;;;9.20;99.90;;;;;;5070745;28;19916;-78
2022/12/28 14:33:32;;;;;;;;;;;9.20;99.90;;;;;;5049086;28;19967;-79
2022/12/28 14:35:59;;;;;;;;;;;9.10;99.90;;;;;;5055694;28;19912;-75
2022/12/28 14:38:27;;;;;;;;;;;9.10;99.90;;;;;;5051857;28;19913;-77
2022/12/28 14:40:54;;;;;;;;;;;9.10;99.90;;;;;;5054359;28;19948;-79
2022/12/28 14:43:23;;;;;;;;;;;9.10;99.90;;;;;;5052293;28;19921;-77
2022/12/28 14:45:48;;;;;;;;;;;9.10;99.90;;;;;;5054579;28;19908;-76
2022/12/28 14:48:29;;;;;;;;;;;9.10;99.90;;;;;;5053329;28;19913;-77
2022/12/28 14:51:10;;;;;;;;;;;9.10;99.90;;;;;;5056308;28;19917;-83
2022/12/28 14:53:35;;;;;;;;;;;9.10;99.90;;;;;;5054966;28;19913;-84
2022/12/28 14:56:06;;;;;;;;;;;9.10;99.90;;;;;;5056596;28;19931;-85
2022/12/28 14:59:02;;;;;;;;;;;9.10;99.90;;;;;;5042225;28;20016;-78
2022/12/28 15:01:41;;;;;;;;;;;9.00;99.90;;;;;;4982266;28;20025;-79
2022/12/28 15:04:07;;;;;;;;;;;9.00;99.90;;;;;;4985611;28;19914;-75
2022/12/28 15:06:33;;;;;;;;;;;9.00;99.90;;;;;;4989861;28;20016;-74
2022/12/28 15:09:00;;;;;;;;;;;9.00;99.90;;;;;;4985147;28;19976;-75
2022/12/28 15:11:26;;;;;;;;;;;9.00;99.90;;;;;;4975025;28;19914;-81